Latest Weather Observations for Dennes Point

IDT60901

Issued at 9:51 pm EDT Saturday 23 February 2019 (issued every 10 minutes, with the page automatically refreshed every 10 minutes)

About weather observations | Map of Hobart area stations | Latest observations for Hobart area | Other Formats
Station Details ID: 094255 Name: DENNES POINT Lat: -43.06 Lon: 147.36 Height: 5.67 m
Data from the previous 72 hours. | See also: Recent months at Dennes Point
Date/Time
EDT
Temp
°C
App
Temp
°C
Dew
Point
°C
Rel
Hum
%
Delta-T
°C
Wind Press
QNH
hPa
Press
MSL
hPa
Rain since
9am
mm
Dir  Spd
km/h
Gust
km/h
Spd
kts
Gust
kts
23/09:30pm 12.3 10.4 6.6 68 2.7 SE 6 7 3 4 1031.7 1031.7 0.0
23/09:00pm 12.5 10.6 6.8 68 2.7 SSE 6 9 3 5 1031.7 1031.7 0.0
23/08:30pm 12.5 10.3 6.1 65 3.0 SSE 7 11 4 6 1031.5 1031.5 0.0
23/08:00pm 13.0 10.9 6.6 65 3.0 SE 7 13 4 7 1031.2 1031.2 0.0
23/07:30pm 13.5 11.0 6.6 63 3.3 SE 9 15 5 8 1030.6 1030.6 0.0
23/07:00pm 13.9 11.0 6.7 62 3.4 ESE 11 17 6 9 1030.7 1030.7 0.0
23/06:30pm 14.3 10.7 6.9 61 3.6 ESE 15 20 8 11 1030.5 1030.5 0.0
23/06:00pm 14.8 10.9 6.9 59 3.8 ESE 17 22 9 12 1030.6 1030.6 0.0
23/05:30pm 14.9 10.9 6.5 57 4.1 ESE 17 24 9 13 1030.6 1030.6 0.0
23/05:00pm 15.5 11.3 7.5 59 3.9 ESE 19 26 10 14 1030.4 1030.4 0.0
23/04:30pm 15.4 11.0 6.4 55 4.4 ESE 19 24 10 13 1030.0 1030.0 0.0
23/04:00pm 15.5 11.0 6.8 56 4.2 ESE 20 28 11 15 1030.0 1030.0 0.0
23/03:30pm 15.7 11.1 6.7 55 4.4 ESE 20 26 11 14 1029.9 1029.9 0.0
23/03:00pm 15.7 10.3 6.4 54 4.5 ESE 24 30 13 16 1029.8 1029.8 0.0
23/02:30pm 16.0 11.2 7.5 57 4.2 ESE 22 30 12 16 1029.8 1029.8 0.0
23/02:00pm 15.8 10.6 7.3 57 4.2 ESE 24 30 13 16 1030.0 1030.0 0.0
23/01:30pm 15.7 10.1 7.2 57 4.2 ESE 26 35 14 19 1029.6 1029.6 0.0
23/01:00pm 16.7 13.2 5.6 48 5.3 ESE 13 22 7 12 1029.8 1029.8 0.0
23/12:30pm 16.3 13.4 4.7 46 5.5 S 9 17 5 9 1029.9 1029.9 0.0
23/12:00pm 15.7 12.1 5.0 49 5.0 SW 13 24 7 13 1030.0 1030.0 0.0
23/11:30am 14.9 11.0 5.4 53 4.5 SW 15 24 8 13 1029.9 1029.9 0.0
23/11:00am 14.8 11.0 5.9 55 4.2 SSW 15 26 8 14 1029.9 1029.9 0.0
23/10:30am 14.7 10.6 6.3 57 4.0 SSW 17 30 9 16 1029.7 1029.7 0.0
23/10:00am 14.5 9.9 5.6 55 4.2 SSW 19 28 10 15 1029.6 1029.6 0.0
23/09:30am 13.6 10.4 6.7 63 3.3 SSW 13 20 7 11 1029.4 1029.4 0.0
23/09:00am 13.0 9.4 6.6 65 3.0 SW 15 20 8 11 1029.1 1029.1 0.8
23/08:30am 13.1 9.9 6.7 65 3.1 S 13 22 7 12 1028.8 1028.8 0.8
23/08:00am 12.6 8.7 7.1 69 2.6 SSW 17 24 9 13 1028.2 1028.2 0.8
23/07:30am 12.1 8.9 6.8 70 2.5 SSW 13 20 7 11 1027.8 1027.8 0.8
23/07:00am 11.7 9.8 7.4 75 2.1 S 7 11 4 6 1027.4 1027.4 0.8
23/06:30am 12.1 9.9 8.0 76 2.0 SSE 9 13 5 7 1026.8 1026.8 0.8
23/06:00am 12.4 9.2 8.5 77 1.9 S 15 22 8 12 1026.5 1026.5 0.8
23/05:30am 12.5 9.8 9.1 80 1.7 S 13 24 7 13 1026.1 1026.1 0.8
23/05:00am 12.6 9.4 10.0 84 1.3 SSW 17 24 9 13 1025.5 1025.5 0.8
23/04:30am 12.9 9.6 11.0 88 1.0 S 19 28 10 15 1025.2 1025.2 0.6
23/04:00am 13.4 12.3 12.0 91 0.7 SSW 9 13 5 7 1025.1 1025.1 0.4
23/03:30am 13.6 11.3 11.7 88 1.0 S 15 20 8 11 1025.0 1025.0 0.0
23/03:00am 14.1 12.1 11.6 85 1.3 SSE 13 19 7 10 1024.8 1024.8 0.0
23/02:30am 15.3 12.0 9.7 69 2.9 SSW 17 22 9 12 1024.8 1024.8 0.0
23/02:00am 15.7 12.7 9.4 66 3.2 WSW 15 19 8 10 1024.5 1024.5 0.0
23/01:30am 15.6 12.3 9.7 68 3.1 W 17 20 9 11 1024.5 1024.5 0.0
23/01:00am 15.9 12.2 9.6 66 3.3 WSW 19 24 10 13 1024.4 1024.4 0.0
23/12:30am 15.7 12.0 9.4 66 3.3 WSW 19 22 10 12 1024.2 1024.2 0.0
23/12:00am 15.8 11.9 9.5 66 3.2 WSW 20 26 11 14 1023.9 1023.9 0.0
 
Date/Time
EDT
Temp
°C
App
Temp
°C
Dew
Point
°C
Rel
Hum
%
Delta-T
°C
Wind Press
QNH
hPa
Press
MSL
hPa
Rain since
9am
mm
Dir  Spd
km/h
Gust
km/h
Spd
kts
Gust
kts
22/11:30pm 15.9 11.4 10.0 68 3.1 WSW 24 28 13 15 1023.9 1023.9 0.0
22/11:00pm 16.1 11.4 9.1 63 3.6 WSW 24 30 13 16 1023.8 1023.8 0.0
22/10:30pm 15.9 12.5 9.1 64 3.5 WSW 17 20 9 11 1023.8 1023.8 0.0
22/10:00pm 16.3 11.9 9.0 62 3.7 W 22 32 12 17 1023.5 1023.5 0.0
22/09:30pm 16.5 11.7 9.0 61 3.9 WSW 24 30 13 16 1023.5 1023.5 0.0
22/09:00pm 16.8 12.0 9.0 60 4.0 WSW 24 32 13 17 1023.2 1023.2 0.0
22/08:30pm 17.2 13.3 8.6 57 4.4 SW 19 28 10 15 1023.0 1023.0 0.0
22/08:00pm 17.4 12.4 9.6 60 4.1 WSW 26 35 14 19 1022.3 1022.3 0.0
22/07:30pm 18.0 12.6 9.6 58 4.4 W 28 35 15 19 1021.9 1021.9 0.0
22/07:00pm 19.1 15.5 10.6 58 4.6 W 20 26 11 14 1022.0 1022.0 0.0
22/06:30pm 19.5 14.8 10.8 57 4.7 W 26 32 14 17 1021.6 1021.6 0.0
22/06:00pm 19.3 14.9 10.3 56 4.8 WSW 24 32 13 17 1021.5 1021.5 0.0
22/05:30pm 19.8 19.3 12.1 61 4.3 NNE 6 15 3 8 1021.5 1021.5 0.0
22/05:00pm 17.7 16.1 11.7 68 3.3 ESE 11 17 6 9 1021.2 1021.2 0.0
22/04:30pm 18.1 16.1 11.4 65 3.7 ESE 13 20 7 11 1021.0 1021.0 0.0
22/04:00pm 18.8 17.7 11.9 64 3.8 SSE 9 13 5 7 1021.0 1021.0 0.0
22/03:30pm 19.1 17.2 11.7 62 4.1 ESE 13 20 7 11 1021.4 1021.4 0.0
22/03:00pm 17.6 15.5 11.2 66 3.5 E 13 17 7 9 1021.3 1021.3 0.0
22/02:30pm 19.2 17.3 11.7 62 4.1 E 13 17 7 9 1021.4 1021.4 0.0
22/02:00pm 18.0 15.9 11.3 65 3.6 ESE 13 20 7 11 1021.6 1021.6 0.0
22/01:30pm 18.9 16.7 9.4 54 5.0 SSE 11 24 6 13 1021.6 1021.6 0.0
22/01:00pm 20.6 16.8 8.9 47 6.1 W 19 24 10 13 1021.7 1021.7 0.0
22/12:30pm 21.3 16.3 9.5 47 6.3 WSW 26 32 14 17 1021.8 1021.8 0.0
22/12:00pm 19.9 16.1 8.9 49 5.8 W 19 24 10 13 1022.1 1022.1 0.0
22/11:30am 20.0 15.8 9.6 51 5.5 W 22 30 12 16 1022.3 1022.3 0.0
22/11:00am 16.9 12.7 8.3 57 4.4 W 20 28 11 15 1022.4 1022.4 0.0
22/10:30am 16.4 12.1 9.3 63 3.7 WSW 22 33 12 18 1022.5 1022.5 0.0
22/10:00am 16.1 13.1 9.1 63 3.6 WSW 15 22 8 12 1022.3 1022.3 0.0
22/09:30am 15.9 13.7 9.3 65 3.4 SW 11 19 6 10 1022.1 1022.1 0.0
22/09:00am 15.4 12.7 9.1 66 3.2 W 13 17 7 9 1022.0 1022.0 0.0
22/08:30am 14.6 12.6 8.5 67 3.1 WNW 9 11 5 6 1021.8 1021.8 0.0
22/08:00am 14.1 12.8 9.1 72 2.5 SSW 6 7 3 4 1021.4 1021.4 0.0
22/07:30am 13.3 11.8 9.2 76 2.1 SSW 7 9 4 5 1021.0 1021.0 0.0
22/07:00am 12.7 11.2 8.4 75 2.1 SSW 6 7 3 4 1020.6 1020.6 0.0
22/06:30am 12.8 11.6 8.1 73 2.3 SSW 4 4 2 2 1020.3 1020.3 0.0
22/06:00am 12.7 12.2 7.8 72 2.4 CALM 0 0 0 0 1020.2 1020.2 0.0
22/05:30am 12.9 12.1 8.0 72 2.4 WNW 2 4 1 2 1020.1 1020.1 0.0
22/05:00am 13.0 11.7 7.7 70 2.6 WSW 4 6 2 3 1020.0 1019.9 0.0
22/04:30am 13.2 11.5 7.4 68 2.8 WSW 6 7 3 4 1019.8 1019.7 0.0
22/04:00am 13.4 11.5 7.4 67 2.9 W 7 11 4 6 1019.8 1019.7 0.0
22/03:30am 14.1 11.6 8.3 68 2.9 NW 11 13 6 7 1019.7 1019.6 0.0
22/03:00am 13.9 11.5 8.7 71 2.6 WNW 11 15 6 8 1019.8 1019.7 0.0
22/02:30am 14.0 11.2 8.6 70 2.7 WNW 13 17 7 9 1019.5 1019.4 0.0
22/02:00am 14.0 12.5 9.0 72 2.5 WNW 7 13 4 7 1019.6 1019.5 0.0
22/01:30am 14.1 10.6 8.9 71 2.6 W 17 20 9 11 1019.8 1019.7 0.0
22/01:00am 14.2 11.5 8.8 70 2.7 W 13 20 7 11 1019.8 1019.7 0.0
22/12:30am 14.1 10.6 8.7 70 2.7 W 17 24 9 13 1019.6 1019.5 0.0
22/12:00am 14.3 10.4 8.7 69 2.8 WSW 19 22 10 12 1019.8 1019.7 0.0
 
Date/Time
EDT
Temp
°C
App
Temp
°C
Dew
Point
°C
Rel
Hum
%
Delta-T
°C
Wind Press
QNH
hPa
Press
MSL
hPa
Rain since
9am
mm
Dir  Spd
km/h
Gust
km/h
Spd
kts
Gust
kts
21/11:30pm 14.2 11.0 8.4 68 2.9 WSW 15 19 8 10 1019.8 1019.7 0.0
21/11:00pm 14.5 10.9 8.2 66 3.1 W 17 20 9 11 1019.6 1019.5 0.0
21/10:30pm 14.8 11.9 8.1 64 3.4 WSW 13 17 7 9 1019.7 1019.6 0.0
21/10:00pm 14.9 11.5 7.5 61 3.6 WSW 15 19 8 10 1019.5 1019.4 0.0
21/09:30pm 14.9 11.9 7.9 63 3.5 WSW 13 20 7 11 1019.2 1019.1 0.0
21/09:00pm 14.9 11.5 7.7 62 3.6 WSW 15 20 8 11 1018.9 1018.8 0.0
21/08:30pm 15.4 12.1 7.9 61 3.8 SW 15 19 8 10 1018.4 1018.3 0.0
21/08:00pm 15.8 11.4 7.3 57 4.2 WSW 20 26 11 14 1018.1 1018.0 0.0
21/07:30pm 16.3 11.3 8.0 58 4.2 WSW 24 39 13 21 1017.4 1017.3 0.0
21/07:00pm 16.6 12.4 7.3 54 4.6 WSW 19 30 10 16 1017.1 1017.0 0.0
21/06:30pm 16.7 12.5 7.4 54 4.6 WSW 19 26 10 14 1016.9 1016.8 0.0
21/06:00pm 16.9 11.0 7.3 53 4.8 SW 28 35 15 19 1016.5 1016.4 0.0
21/05:30pm 17.1 10.4 7.5 53 4.8 WSW 32 43 17 23 1016.0 1015.9 0.0
21/05:00pm 17.2 9.5 7.0 51 5.1 WSW 37 46 20 25 1015.7 1015.6 0.0
21/04:39pm 17.7 11.4 7.4 51 5.2 WSW 30 50 16 27 1015.4 1015.3 0.0
21/04:30pm 17.5 12.4 7.5 52 5.0 WSW 24 32 13 17 1015.5 1015.4 0.0
21/04:00pm 16.7 12.9 8.9 60 4.0 WSW 19 33 10 18 1015.5 1015.4 0.0
21/03:30pm 17.5 11.9 8.9 57 4.5 WSW 28 43 15 23 1015.2 1015.1 0.0
21/03:04pm 17.4 11.9 9.3 59 4.2 WSW 28 46 15 25 1015.1 1015.0 0.0
21/03:00pm 17.3 12.8 8.7 57 4.4 WSW 22 30 12 16 1015.2 1015.1 0.0
21/02:30pm 17.7 12.2 7.7 52 5.1 WSW 26 39 14 21 1014.7 1014.6 0.0
21/02:00pm 18.1 12.0 8.4 53 5.0 W 30 39 16 21 1014.7 1014.6 0.0
21/01:42pm 18.4 12.2 9.5 56 4.7 WSW 32 52 17 28 1014.7 1014.6 0.0
21/01:30pm 17.7 11.9 9.3 58 4.4 WSW 30 37 16 20 1014.6 1014.5 0.0
21/01:00pm 16.7 11.2 9.1 61 3.9 W 28 37 15 20 1014.3 1014.2 0.0
21/12:30pm 16.4 12.0 8.9 61 3.9 SW 22 32 12 17 1013.9 1013.8 0.0
21/12:00pm 16.4 12.6 9.1 62 3.8 SW 19 26 10 14 1013.6 1013.5 0.0
21/11:30am 16.1 10.3 9.3 64 3.5 WSW 30 37 16 20 1013.1 1013.0 0.0
21/11:00am 15.8 11.3 8.5 62 3.7 W 22 30 12 16 1012.9 1012.8 0.0
21/10:30am 15.8 11.5 7.8 59 4.0 W 20 32 11 17 1012.5 1012.4 0.0
21/10:00am 15.5 11.7 7.5 59 4.0 W 17 24 9 13 1012.3 1012.2 0.0
21/09:30am 15.3 10.8 7.1 58 4.0 W 20 28 11 15 1011.8 1011.7 0.0
21/09:00am 15.7 11.3 7.2 57 4.2 WNW 20 30 11 16 1011.7 1011.6 0.0
21/08:30am 14.5 10.4 6.3 58 3.9 WNW 17 26 9 14 1011.5 1011.4 0.0
21/08:00am 14.0 8.5 6.1 59 3.8 WNW 24 32 13 17 1011.1 1011.0 0.0
21/07:30am 13.6 9.4 5.7 59 3.7 WNW 17 24 9 13 1010.8 1010.7 0.0
21/07:00am 13.3 10.5 5.2 58 3.8 NW 9 13 5 7 1010.6 1010.5 0.0
21/06:30am 12.8 10.3 4.8 58 3.7 NW 7 11 4 6 1010.8 1010.7 0.0
21/06:00am 11.6 10.0 4.3 61 3.3 NNW 2 9 1 5 1010.7 1010.6 0.0
21/05:30am 11.3 8.9 4.1 61 3.2 WSW 6 9 3 5 1010.7 1010.6 0.0
21/05:00am 12.5 8.1 5.0 60 3.5 WNW 17 22 9 12 1010.6 1010.5 0.0
21/04:30am 12.3 7.9 4.5 59 3.5 WNW 17 20 9 11 1010.4 1010.3 0.0
21/04:00am 12.0 7.3 5.2 63 3.1 WNW 19 24 10 13 1010.5 1010.4 0.0
21/03:30am 12.1 7.9 5.9 66 2.9 NW 17 28 9 15 1010.5 1010.4 0.0
21/03:00am 12.2 8.3 5.4 63 3.2 NW 15 19 8 10 1010.6 1010.5 0.0
21/02:30am 11.9 8.5 5.8 66 2.8 WNW 13 19 7 10 1010.8 1010.7 0.0
21/02:00am 12.6 6.9 4.8 59 3.6 WNW 24 32 13 17 1010.7 1010.6 0.0
21/01:30am 12.0 7.5 6.3 68 2.7 WNW 19 22 10 12 1010.7 1010.6 0.0
21/01:00am 12.2 8.4 5.8 65 3.0 NW 15 26 8 14 1011.0 1010.9 0.0
21/12:30am 12.1 9.2 6.6 69 2.6 WNW 11 17 6 9 1011.2 1011.1 0.0
21/12:00am 12.6 8.4 5.8 63 3.2 NW 17 24 9 13 1010.7 1010.6 0.0
 
Date/Time
EDT
Temp
°C
App
Temp
°C
Dew
Point
°C
Rel
Hum
%
Delta-T
°C
Wind Press
QNH
hPa
Press
MSL
hPa
Rain since
9am
mm
Dir  Spd
km/h
Gust
km/h
Spd
kts
Gust
kts
20/11:30pm 13.1 9.6 5.5 60 3.6 NW 13 20 7 11 1011.0 1010.9 0.0
20/11:00pm 13.7 9.9 3.8 51 4.5 NW 13 17 7 9 1010.8 1010.7 0.0
20/10:30pm 14.0 9.1 4.0 51 4.6 WNW 19 28 10 15 1010.6 1010.5 0.0
20/10:00pm 14.0 11.5 4.9 54 4.2 NW 7 11 4 6 1010.7 1010.6 0.0

Latest Capital City Observations: Canberra | Sydney | Melbourne | Brisbane | Adelaide | Perth | Hobart | Darwin

Other formats

Comma delimited format used in spreadsheet applications
http://www.bom.gov.au/fwo/IDT60901/IDT60901.94988.axf

JavaScript Object Notation format (JSON) in row-major order
http://www.bom.gov.au/fwo/IDT60901/IDT60901.94988.json

Data quality

Most of these data are generated automatically and are frequently updated. Quality checks on data are not normally performed. It is possible for incorrect values to appear. Refer to information at About Latest Weather Observations and please check the disclaimer before using these data.